Latest Coastal Weather Observations for Norfolk Island

IDN60701

Issued at 4:01 pm EDT Saturday 10 December 2016 (issued every 10 minutes, with the page automatically refreshed every 10 minutes)

About coastal observations | Map of coastal stations | Coastal observations for NSW | Marine services | Other Formats
Station Details ID: 200288 Name: NORFOLK ISLAND AERO Lat: -29.04 Lon: 167.94 Height: 111.73 m
Data from the previous 72 hours. | See also: Recent months at Norfolk Island
Date/Time
EDT
Temp
°C
Wind Pressure Rain since
9am
mm
Weather Cloud Vis
km
Sea
Height
m
Swell
Dir  Spd
kts
Gust
kts
hPa Trend Height
m
Period
s
Dir
10/04:00pm 22.3 S 14 18 1015.4 - 0.0 - Partly cloudy 10 - - - -
10/03:30pm 22.0 S 15 20 1015.3 - 0.0 - Partly cloudy 10 - - - -
10/03:00pm 22.1 SSE 11 17 1015.2 - 0.0 - Cloudy 10 - - - -
10/02:30pm 22.4 S 14 19 1015.2 - 0.0 - Partly cloudy 10 - - - -
10/02:00pm 22.9 S 15 20 1014.9 - 0.0 - Partly cloudy 10 - - - -
10/01:30pm 23.1 S 17 22 1015.1 - 0.0 - Partly cloudy 10 - - - -
10/01:06pm 22.7 S 15 21 1014.8 - 0.0 - Partly cloudy 10 - - - -
10/01:00pm 22.5 S 17 24 1014.7 - 0.0 - Partly cloudy 10 - - - -
10/12:51pm 23.0 S 15 24 1014.7 - 0.0 - Partly cloudy 10 - - - -
10/12:30pm 21.9 S 8 13 1014.7 - 0.0 - Partly cloudy 10 - - - -
10/12:00pm 22.1 SSE 12 16 1014.4 - 0.0 Showers Mostly cloudy 10 - - - -
10/11:32am 21.6 S 12 16 1014.4 - 0.0 - Partly cloudy 10 - - - -
10/11:30am 21.6 S 12 16 1014.2 - 0.0 - Partly cloudy 10 - - - -
10/11:00am 22.4 S 14 18 1014.4 - 0.0 - Partly cloudy 10 - - - -
10/10:30am 22.2 SSE 11 15 1013.8 - 0.0 - Partly cloudy 10 - - - -
10/10:18am 21.6 S 12 17 1014.1 - 0.0 - Partly cloudy 10 - - - -
10/10:06am 21.3 S 11 17 1014.1 - 0.0 - Partly cloudy 10 - - - -
10/10:00am 21.1 SSW 13 18 1014.2 - 0.0 - Partly cloudy 10 - - - -
10/09:38am 21.7 W 15 21 1013.9 - 0.0 - Cloudy 6 - - - -
10/09:30am 21.7 W 14 18 1013.7 - 0.0 - Cloudy 10 - - - -
10/09:00am 21.8 W 13 19 1013.7 - 3.0 Rain Mostly cloudy 9 - - - -
10/08:34am 21.5 W 13 17 1013.7 - 3.0 - Cloudy 8 - - - -
10/08:30am 21.6 W 12 17 1013.6 - 3.0 - Cloudy 9 - - - -
10/08:00am 21.3 W 12 18 1013.6 - 2.8 - Cloudy 3 - - - -
10/07:44am 21.6 W 12 17 1013.6 - 1.2 - Cloudy 6 - - - -
10/07:30am 22.3 W 12 16 1013.6 - 1.0 - Cloudy 10 - - - -
10/07:00am 22.1 W 11 16 1013.3 - 1.0 - Cloudy 10 - - - -
10/06:30am 21.7 WNW 11 18 1013.1 - 1.0 - Cloudy 10 - - - -
10/06:00am 21.9 WNW 11 17 1012.8 - 1.0 - Cloudy 10 - - - -
10/05:30am 21.5 WNW 11 20 1012.5 - 1.0 - Partly cloudy 10 - - - -
10/05:00am 21.4 WNW 12 17 1012.4 - 1.0 - Partly cloudy 10 - - - -
10/04:30am 21.4 WNW 11 16 1012.4 - 1.0 - Cloudy 10 - - - -
10/04:00am 21.5 WNW 12 18 1012.3 - 1.0 - Cloudy 10 - - - -
10/03:30am 21.5 WNW 9 17 1012.1 - 1.0 - Partly cloudy 10 - - - -
10/03:00am 21.5 WNW 9 14 1012.2 - 1.0 - Cloudy 10 - - - -
10/02:30am 21.5 WNW 11 18 1012.4 - 1.0 - Partly cloudy 10 - - - -
10/02:23am 21.5 WNW 9 16 1012.4 - 1.0 - Partly cloudy 10 - - - -
10/02:00am 21.5 WNW 9 16 1012.4 - 1.0 - Partly cloudy 10 - - - -
10/01:49am 21.5 WNW 10 16 1012.5 - 1.0 - Partly cloudy 10 - - - -
10/01:30am 21.6 WNW 8 14 1012.6 - 1.0 - Partly cloudy 10 - - - -
10/01:00am 21.6 WNW 9 14 1012.8 - 1.0 - Cloudy 10 - - - -
10/12:30am 21.8 WNW 9 15 1012.9 - 1.0 - Cloudy 10 - - - -
10/12:00am 21.7 WNW 10 16 1013.1 - 1.0 - Cloudy 9 - - - -
 
Date/Time
EDT
Temp
°C
Wind Pressure Rain since
9am
mm
Weather Cloud Vis
km
Sea
Height
m
Swell
Dir  Spd
kts
Gust
kts
hPa Trend Height
m
Period
s
Dir
09/11:30pm 21.9 WNW 10 15 1013.4 - 1.0 - Cloudy 8 - - - -
09/11:00pm 21.9 WNW 10 16 1013.5 - 1.0 - Cloudy 8 - - - -
09/10:30pm 22.0 WNW 11 19 1013.8 - 1.0 - Cloudy 9 - - - -
09/10:00pm 22.0 WNW 9 14 1013.8 - 1.0 - Cloudy 8 - - - -
09/09:50pm 22.0 WNW 10 18 1013.8 - 1.0 - Cloudy 7 - - - -
09/09:30pm 22.0 WNW 9 15 1013.6 - 1.0 - Cloudy 5 - - - -
09/09:00pm 22.1 WNW 10 16 1013.3 - 1.0 Rain Cloudy 5 - - - -
09/08:59pm 22.1 WNW 10 16 1013.4 - 1.0 - Partly cloudy 5 - - - -
09/08:30pm 22.1 WNW 9 13 1013.3 - 0.2 - Cloudy 9 - - - -
09/08:00pm 22.2 WNW 9 15 1013.1 - 0.2 - Cloudy 10 - - - -
09/07:30pm 22.2 WNW 10 15 1012.8 - 0.2 - Partly cloudy 10 - - - -
09/07:00pm 22.1 WNW 7 11 1012.4 - 0.2 - Cloudy 10 - - - -
09/06:30pm 22.4 WNW 6 10 1012.1 - 0.2 - Partly cloudy 10 - - - -
09/06:00pm 22.5 NW 6 11 1011.8 - 0.2 - Cloudy 10 - - - -
09/05:30pm 22.7 WNW 8 14 1011.6 - 0.2 - Partly cloudy 10 - - - -
09/05:12pm 23.7 WNW 6 10 1011.3 - 0.2 - Partly cloudy 10 - - - -
09/05:04pm 23.8 WNW 8 13 1011.3 - 0.2 - Partly cloudy 10 - - - -
09/05:00pm 23.0 WNW 8 13 1011.3 - 0.2 - Partly cloudy 10 - - - -
09/04:30pm 23.2 WNW 7 10 1011.3 - 0.2 - Cloudy 10 - - - -
09/04:00pm 23.0 WNW 8 12 1011.4 - 0.2 - Mostly cloudy 10 - - - -
09/03:53pm 23.0 WNW 9 13 1011.4 - 0.2 - Partly cloudy 10 - - - -
09/03:30pm 23.7 NW 6 13 1011.5 - 0.2 - Mostly clear 10 - - - -
09/03:00pm 24.9 W 7 10 1011.5 - 0.2 - Partly cloudy 10 - - - -
09/02:30pm 24.7 W 6 9 1011.7 - 0.2 - Mostly clear 10 - - - -
09/02:00pm 24.4 WSW 5 8 1011.8 - 0.2 - Mostly clear 10 - - - -
09/01:30pm 24.7 WSW 6 9 1012.0 - 0.2 - Partly cloudy 10 - - - -
09/01:03pm 25.1 WSW 5 8 1011.9 - 0.2 - Partly cloudy 10 - - - -
09/01:00pm 24.6 WSW 5 8 1011.9 - 0.2 - Mostly clear 10 - - - -
09/12:30pm 23.1 NNE 4 8 1012.2 - 0.2 - Mostly clear 10 - - - -
09/12:00pm 22.7 NE 5 7 1012.5 - 0.2 Recent precip. Cloudy 10 - - - -
09/11:30am 22.6 NE 5 7 1012.5 - 0.2 - Mostly clear 10 - - - -
09/11:00am 23.3 NE 5 7 1012.7 - 0.0 - Partly cloudy 10 - - - -
09/10:30am 22.8 NNE 5 7 1012.7 - 0.0 - Partly cloudy 10 - - - -
09/10:00am 22.2 NE 6 7 1012.8 - 0.0 - Partly cloudy 10 - - - -
09/09:30am 21.6 NNE 4 6 1012.9 - 0.0 - Partly cloudy 10 - - - -
09/09:00am 22.4 ENE 3 6 1012.9 - 4.2 - Cloudy 10 - - - -
09/08:59am 22.6 E 3 6 1012.9 - 4.2 - Partly cloudy 10 - - - -
09/08:30am 22.9 E 1 5 1013.0 - 4.2 - Partly cloudy 10 - - - -
09/08:11am 21.8 ESE 2 4 1013.0 - 4.2 - Partly cloudy 10 - - - -
09/08:08am 21.7 ESE 3 4 1013.0 - 4.2 - Partly cloudy 10 - - - -
09/08:00am 21.4 SE 4 5 1013.0 - 4.2 - Partly cloudy 8 - - - -
09/07:50am 20.9 SSE 4 5 1013.1 - 4.2 - Partly cloudy 6 - - - -
09/07:47am 21.0 SSE 4 5 1013.1 - 4.2 - Partly cloudy 8 - - - -
09/07:30am 21.2 ESE 1 4 1013.1 - 4.2 - Partly cloudy 10 - - - -
09/07:00am 21.2 E 4 5 1012.8 - 4.2 - Partly cloudy 10 - - - -
09/06:30am 20.4 E 5 6 1012.7 - 4.2 - Partly cloudy 10 - - - -
09/06:00am 19.9 CALM 0 3 1012.6 - 4.2 - Cloudy 10 - - - -
09/05:47am 19.8 NE 4 5 1012.4 - 4.2 - Partly cloudy 10 - - - -
09/05:30am 19.9 E 1 5 1012.1 - 4.2 - Partly cloudy 5 - - - -
09/05:19am 19.8 CALM 0 0 1012.1 - 4.2 - Partly cloudy 6 - - - -
09/05:17am 19.7 CALM 0 0 1012.0 - 4.2 - Partly cloudy 7 - - - -
09/05:00am 19.7 CALM 0 0 1011.9 - 4.2 - Partly cloudy 10 - - - -
09/04:51am 19.7 CALM 0 0 1011.8 - 4.2 - Cloudy 10 - - - -
09/04:30am 19.6 CALM 0 0 1011.7 - 4.2 - Partly cloudy 3 - - - -
09/04:03am 19.7 E 3 3 1011.6 - 4.0 - Partly cloudy 5 - - - -
09/04:00am 19.7 E 3 3 1011.6 - 4.0 - Partly cloudy 5 - - - -
09/03:54am 19.7 E 2 3 1011.6 - 4.0 - Partly cloudy 6 - - - -
09/03:45am 19.7 CALM 0 0 1011.5 - 4.0 - Cloudy 8 - - - -
09/03:30am 19.7 E 3 4 1011.5 - 4.0 - Partly cloudy 5 - - - -
09/03:27am 19.7 E 3 4 1011.5 - 4.0 - Partly cloudy 6 - - - -
09/03:21am 19.7 E 3 4 1011.5 - 4.0 - Partly cloudy 10 - - - -
09/03:01am 19.5 ESE 4 5 1011.4 - 4.0 - Partly cloudy 6 - - - -
09/03:00am 19.5 SE 4 5 1011.4 - 4.0 - Cloudy 7 - - - -
09/02:30am 19.6 SE 3 5 1011.4 - 4.0 - Partly cloudy 10 - - - -
09/02:02am 19.8 SSE 1 5 1011.5 - 4.0 - Partly cloudy 10 - - - -
09/02:00am 19.7 SSE 2 5 1011.5 - 4.0 - Partly cloudy 10 - - - -
09/01:57am 19.7 SSE 3 5 1011.5 - 4.0 - Partly cloudy 10 - - - -
09/01:38am 19.8 S 1 5 1011.4 - 4.0 - Partly cloudy 6 - - - -
09/01:30am 19.8 CALM 0 0 1011.5 - 3.8 - Partly cloudy 10 - - - -
09/01:20am 19.6 CALM 0 0 1011.4 - 3.8 - Partly cloudy 10 - - - -
09/01:14am 19.6 CALM 0 0 1011.4 - 3.8 - Partly cloudy 10 - - - -
09/01:00am 19.6 CALM 0 0 1011.4 - 3.8 - Partly cloudy 4 - - - -
09/12:30am 19.5 S 3 5 1011.5 - 3.8 - Partly cloudy 2 - - - -
09/12:00am 19.8 CALM 0 3 1011.7 - 3.4 Showers Cloudy 2 - - - -
 
Date/Time
EDT
Temp
°C
Wind Pressure Rain since
9am
mm
Weather Cloud Vis
km
Sea
Height
m
Swell
Dir  Spd
kts
Gust
kts
hPa Trend Height
m
Period
s
Dir
08/11:59pm 19.9 CALM 0 0 1011.7 - 3.4 - Partly cloudy 3 - - - -
08/11:45pm 19.7 CALM 0 0 1011.7 - 3.4 - Partly cloudy 6 - - - -
08/11:30pm 19.9 S 5 5 1011.9 - 3.2 - Partly cloudy 5 - - - -
08/11:00pm 20.0 S 6 7 1012.2 - 3.2 - Partly cloudy 7 - - - -
08/10:30pm 20.2 SSW 6 7 1012.5 - 3.2 - Partly cloudy 5 - - - -
08/10:00pm 20.3 SSW 5 7 1012.5 - 3.0 - Cloudy 5 - - - -
08/09:30pm 20.3 SSW 5 7 1012.6 - 2.8 - Partly cloudy 5 - - - -
08/09:00pm 20.6 SW 8 15 1012.3 - 1.6 Rain Cloudy 4 - - - -
08/08:30pm 20.9 W 12 18 1012.2 - 0.4 - Cloudy 3 - - - -
08/08:00pm 21.2 WNW 9 14 1012.0 - 0.0 - Cloudy 6 - - - -
08/07:41pm 21.1 WNW 9 16 1011.9 - 0.0 - Cloudy 10 - - - -
08/07:30pm 21.0 WNW 9 15 1011.9 - 0.0 - Cloudy 6 - - - -
08/07:00pm 21.0 WNW 10 16 1011.8 - 0.0 - Cloudy 6 - - - -
08/06:30pm 21.2 WNW 10 15 1011.5 - 0.0 - Cloudy 6 - - - -
08/06:05pm 21.6 W 11 16 1011.2 - 0.0 - Cloudy 6 - - - -
08/06:00pm 21.6 WNW 11 18 1011.3 - 0.0 - Cloudy 10 - - - -
08/05:30pm 21.7 WNW 9 16 1011.0 - 0.0 - Partly cloudy 10 - - - -
08/05:00pm 21.8 WNW 11 16 1010.7 - 0.0 - Partly cloudy 10 - - - -
08/04:30pm 21.9 WNW 10 16 1010.5 - 0.0 - Mostly cloudy 10 - - - -
08/04:00pm 21.9 WNW 10 16 1010.6 - 0.0 - Partly cloudy 10 - - - -
08/03:30pm 22.2 WNW 11 17 1010.6 - 0.0 - Partly cloudy 10 - - - -
08/03:00pm 22.3 WNW 12 20 1010.7 - 0.0 - Cloudy 10 - - - -
08/02:30pm 23.6 W 14 19 1010.7 - 0.0 - Mostly clear 10 - - - -
08/02:00pm 23.8 W 14 20 1010.9 - 0.0 - Mostly clear 10 - - - -
08/01:30pm 23.3 WNW 14 20 1011.0 - 0.0 - Mostly clear 10 - - - -
08/01:00pm 23.9 W 14 20 1011.3 - 0.0 - Mostly clear 10 - - - -
08/12:30pm 23.8 W 15 21 1011.4 - 0.0 - Mostly clear 10 - - - -
08/12:00pm 23.5 W 13 20 1011.6 - 0.0 - Partly cloudy 10 - - - -
08/11:30am 24.0 W 14 21 1011.8 - 0.0 - Mostly clear 10 - - - -
08/11:00am 23.7 W 13 20 1012.0 - 0.0 - Mostly clear 10 - - - -
08/10:30am 23.7 W 15 21 1012.3 - 0.0 - Mostly clear 10 - - - -
08/10:00am 23.3 W 14 21 1012.3 - 0.0 - Mostly clear 10 - - - -
08/09:30am 22.9 W 15 21 1012.6 - 0.0 - Mostly clear 10 - - - -
08/09:00am 22.2 W 13 19 1012.8 - 0.0 - Cloudy 10 - - - -
08/08:30am 22.2 WNW 11 17 1013.0 - 0.0 - Mostly clear 10 - - - -
08/08:00am 21.6 WNW 12 17 1013.3 - 0.0 - Mostly clear 10 - - - -
08/07:30am 21.6 WNW 11 17 1013.5 - 0.0 - Partly cloudy 10 - - - -
08/07:00am 21.6 WNW 10 15 1013.6 - 0.0 - Partly cloudy 10 - - - -
08/06:30am 21.9 WNW 9 14 1013.4 - 0.0 - Partly cloudy 10 - - - -
08/06:00am 20.8 WNW 9 15 1013.1 - 0.0 - Mostly cloudy 10 - - - -
08/05:40am 20.8 WNW 9 15 1013.0 - 0.0 - Partly cloudy 10 - - - -
08/05:30am 20.6 WNW 9 13 1013.2 - 0.0 - Partly cloudy 10 - - - -
08/05:00am 20.5 WNW 9 15 1012.9 - 0.0 - Partly cloudy 10 - - - -
08/04:30am 20.4 WNW 9 13 1012.8 - 0.0 - Partly cloudy 10 - - - -
08/04:15am 20.4 WNW 10 16 1012.7 - 0.0 - Partly cloudy 10 - - - -
08/04:00am 20.3 WNW 9 16 1012.6 - 0.0 - Partly cloudy 10 - - - -
08/03:48am 20.3 WNW 9 15 1012.5 - 0.0 - Partly cloudy 10 - - - -
08/03:30am 20.3 WNW 9 14 1012.4 - 0.0 - Partly cloudy 10 - - - -
08/03:11am 20.3 WNW 9 15 1012.5 - 0.0 - Partly cloudy 10 - - - -
08/03:00am 20.3 WNW 9 12 1012.7 - 0.0 - Cloudy 10 - - - -
08/02:30am 20.2 WNW 8 12 1012.7 - 0.0 - Partly cloudy 10 - - - -
08/02:00am 20.1 NW 8 13 1012.9 - 0.0 - Partly cloudy 10 - - - -
08/01:30am 20.1 WNW 7 11 1013.2 - 0.0 - Partly cloudy 10 - - - -
08/01:00am 20.1 WNW 6 10 1013.6 - 0.0 - Partly cloudy 10 - - - -
08/12:30am 19.9 WNW 6 9 1013.9 - 0.0 - Partly cloudy 10 - - - -
08/12:00am 20.0 NW 7 12 1014.5 - 0.0 - Mostly cloudy 10 - - - -
 
Date/Time
EDT
Temp
°C
Wind Pressure Rain since
9am
mm
Weather Cloud Vis
km
Sea
Height
m
Swell
Dir  Spd
kts
Gust
kts
hPa Trend Height
m
Period
s
Dir
07/11:30pm 20.0 WNW 6 11 1014.8 - 0.0 - Partly cloudy 10 - - - -
07/11:00pm 19.8 NW 5 8 1014.7 - 0.0 - Partly cloudy 10 - - - -
07/10:30pm 19.8 NW 6 9 1015.2 - 0.0 - Partly cloudy 10 - - - -
07/10:00pm 19.9 NW 5 9 1015.6 - 0.0 - Partly cloudy 10 - - - -
07/09:30pm 19.8 WNW 5 8 1015.9 - 0.0 - Partly cloudy 10 - - - -
07/09:00pm 19.5 NW 4 7 1015.9 - 0.0 - Mostly clear 10 - - - -
07/08:30pm 19.7 NW 4 6 1015.9 - 0.0 - Partly cloudy 10 - - - -
07/08:00pm 19.6 NNW 5 8 1015.7 - 0.0 - Partly cloudy 10 - - - -
07/07:30pm 19.7 NNW 4 7 1015.5 - 0.0 - - 10 - - - -
07/07:00pm 20.0 N 5 8 1015.5 - 0.0 - Partly cloudy 10 - - - -
07/06:30pm 20.2 NNW 4 8 1015.7 - 0.0 - Partly cloudy 10 - - - -
07/06:00pm 20.5 NW 6 9 1015.6 - 0.0 - Cloudy 10 - - - -
07/05:30pm 21.0 NNW 6 9 1015.3 - 0.0 - Partly cloudy 10 - - - -
07/05:00pm 21.4 NW 7 10 1015.2 - 0.0 - Partly cloudy 10 - - - -
07/04:30pm 22.1 N 8 13 1015.2 - 0.0 - Partly cloudy 10 - - - -
07/04:00pm 22.1 NW 8 12 1015.2 - 0.0 - Mostly clear 10 - - - -

Other Formats:

Comma delimited format used in spreadsheet applications
http://www.bom.gov.au/fwo/IDN60701/IDN60701.94996.axf

JavaScript Object Notation format (JSON) in row-major order
http://www.bom.gov.au/fwo/IDN60701/IDN60701.94996.json